createdAt,value
2023-01-12T00:01:51.479Z,98201.00
2023-01-12T00:04:19.324Z,98200.00
2023-01-12T00:06:47.132Z,98194.00
2023-01-12T00:09:14.850Z,98200.00
2023-01-12T00:11:42.831Z,98206.00
2023-01-12T00:14:10.793Z,98202.00
2023-01-12T00:16:39.780Z,98202.00
2023-01-12T00:19:11.872Z,98208.00
2023-01-12T00:22:07.499Z,98209.00
2023-01-12T00:24:36.507Z,98203.00
2023-01-12T00:27:06.007Z,98208.00
2023-01-12T00:29:33.898Z,98221.00
2023-01-12T00:32:01.758Z,98228.00
2023-01-12T00:34:30.725Z,98221.00
2023-01-12T00:37:00.661Z,98224.00
2023-01-12T00:39:28.299Z,98223.00
2023-01-12T00:42:13.794Z,98218.00
2023-01-12T00:44:59.247Z,98223.00
2023-01-12T00:47:27.258Z,98224.00
2023-01-12T00:49:56.267Z,98223.00
2023-01-12T00:52:30.947Z,98225.00
2023-01-12T00:54:59.763Z,98209.00
2023-01-12T00:57:28.190Z,98211.00
2023-01-12T00:59:58.180Z,98208.00
2023-01-12T01:02:26.111Z,98214.00
2023-01-12T01:04:53.774Z,98217.00
2023-01-12T01:07:23.005Z,98221.00
2023-01-12T01:09:51.004Z,98216.00
2023-01-12T01:12:18.827Z,98204.00
2023-01-12T01:14:47.669Z,98217.00
2023-01-12T01:17:15.409Z,98215.00
2023-01-12T01:19:44.029Z,98219.00
2023-01-12T01:22:12.500Z,98217.00
2023-01-12T01:24:41.692Z,98217.00
2023-01-12T01:27:09.422Z,98218.00
2023-01-12T01:29:37.391Z,98221.00
2023-01-12T01:32:05.160Z,98219.00
2023-01-12T01:34:33.036Z,98215.00
2023-01-12T01:37:00.873Z,98213.00
2023-01-12T01:39:28.491Z,98212.00
2023-01-12T01:41:57.467Z,98208.00
2023-01-12T01:44:51.270Z,98215.00
2023-01-12T01:47:26.952Z,98219.00
2023-01-12T01:49:57.622Z,98214.00
2023-01-12T01:52:29.776Z,98215.00
2023-01-12T01:55:01.215Z,98221.00
2023-01-12T01:57:34.516Z,98214.00
2023-01-12T02:00:04.080Z,98221.00
2023-01-12T02:02:32.581Z,98213.00
2023-01-12T02:05:02.167Z,98213.00
2023-01-12T02:07:30.339Z,98208.00
2023-01-12T02:09:58.437Z,98204.00
2023-01-12T02:12:43.929Z,98199.00
2023-01-12T02:15:30.666Z,98200.00
2023-01-12T02:18:10.569Z,98198.00
2023-01-12T02:20:48.581Z,98201.00
2023-01-12T02:23:42.990Z,98190.00
2023-01-12T02:26:39.341Z,98186.00
2023-01-12T02:29:48.829Z,98184.00
2023-01-12T02:32:28.334Z,98187.00
2023-01-12T02:35:04.616Z,98183.00
2023-01-12T02:37:37.680Z,98180.00
2023-01-12T02:40:10.656Z,98173.00
2023-01-12T02:42:41.199Z,98177.00
2023-01-12T02:45:23.416Z,98176.00
2023-01-12T02:47:57.694Z,98174.00
2023-01-12T02:50:30.470Z,98172.00
2023-01-12T02:53:05.584Z,98165.00
2023-01-12T02:55:35.127Z,98166.00
2023-01-12T02:58:06.003Z,98159.00
2023-01-12T03:00:35.840Z,98159.00
2023-01-12T03:03:05.079Z,98150.00
2023-01-12T03:05:32.702Z,98152.00
2023-01-12T03:08:03.162Z,98148.00
2023-01-12T03:10:42.503Z,98158.00
2023-01-12T03:13:13.149Z,98153.00
2023-01-12T03:15:43.842Z,98149.00
2023-01-12T03:18:17.508Z,98147.00
2023-01-12T03:20:50.848Z,98140.00
2023-01-12T03:23:22.692Z,98144.00
2023-01-12T03:25:53.775Z,98138.00
2023-01-12T03:28:23.841Z,98137.00
2023-01-12T03:30:56.412Z,98130.00
2023-01-12T03:33:26.675Z,98133.00
2023-01-12T03:36:04.184Z,98133.00
2023-01-12T03:38:47.087Z,98128.00
2023-01-12T03:41:22.249Z,98133.00
2023-01-12T03:43:53.339Z,98134.00
2023-01-12T03:46:27.307Z,98135.00
2023-01-12T03:49:02.409Z,98135.00
2023-01-12T03:51:34.137Z,98126.00
2023-01-12T03:54:04.565Z,98129.00
2023-01-12T03:56:36.751Z,98125.00
2023-01-12T03:59:05.321Z,98120.00
2023-01-12T04:01:33.639Z,98112.00
2023-01-12T04:04:02.696Z,98107.00
2023-01-12T04:06:30.348Z,98107.00
2023-01-12T04:08:57.947Z,98108.00
2023-01-12T04:11:43.446Z,98096.00
2023-01-12T04:14:11.059Z,98094.00
2023-01-12T04:16:38.842Z,98093.00
2023-01-12T04:19:07.808Z,98101.00
2023-01-12T04:21:53.241Z,98102.00
2023-01-12T04:24:20.890Z,98109.00
2023-01-12T04:26:48.567Z,98124.00
2023-01-12T04:29:16.360Z,98111.00
2023-01-12T04:31:44.072Z,98106.00
2023-01-12T04:34:13.071Z,98111.00
2023-01-12T04:36:42.799Z,98111.00
2023-01-12T04:39:10.474Z,98095.00
2023-01-12T04:41:38.130Z,98095.00
2023-01-12T04:44:05.799Z,98092.00
2023-01-12T04:46:33.447Z,98087.00
2023-01-12T04:49:01.059Z,98087.00
2023-01-12T04:51:30.072Z,98085.00
2023-01-12T04:53:57.879Z,98085.00
2023-01-12T04:56:25.516Z,98087.00
2023-01-12T04:58:56.510Z,98074.00
2023-01-12T05:01:24.245Z,98074.00
2023-01-12T05:03:51.960Z,98082.00
2023-01-12T05:06:19.603Z,98083.00
2023-01-12T05:09:11.328Z,98080.00
2023-01-12T05:11:39.412Z,98086.00
2023-01-12T05:14:07.196Z,98084.00
2023-01-12T05:16:34.896Z,98083.00
2023-01-12T05:19:02.546Z,98080.00
2023-01-12T05:21:31.196Z,98084.00
2023-01-12T05:24:00.168Z,98084.00
2023-01-12T05:26:27.805Z,98080.00
2023-01-12T05:28:55.436Z,98073.00
2023-01-12T05:31:23.107Z,98070.00
2023-01-12T05:33:50.728Z,98079.00
2023-01-12T05:36:20.506Z,98071.00
2023-01-12T05:38:48.133Z,98079.00
2023-01-12T05:41:17.134Z,98066.00
2023-01-12T05:43:50.193Z,98060.00
2023-01-12T05:46:19.923Z,98067.00
2023-01-12T05:48:47.645Z,98059.00
2023-01-12T05:51:16.128Z,98068.00
2023-01-12T05:53:44.158Z,98067.00
2023-01-12T05:56:16.614Z,98062.00
2023-01-12T05:58:49.998Z,98064.00
2023-01-12T06:01:17.832Z,98066.00
2023-01-12T06:03:49.894Z,98058.00
2023-01-12T06:06:17.764Z,98063.00
2023-01-12T06:08:45.648Z,98064.00
2023-01-12T06:11:27.760Z,98060.00
2023-01-12T06:13:59.635Z,98055.00
2023-01-12T06:16:27.947Z,98045.00
2023-01-12T06:18:55.854Z,98050.00
2023-01-12T06:21:24.441Z,98052.00
2023-01-12T06:23:52.308Z,98052.00
2023-01-12T06:26:19.939Z,98058.00
2023-01-12T06:28:47.572Z,98045.00
2023-01-12T06:31:16.712Z,98031.00
2023-01-12T06:33:44.448Z,98046.00
2023-01-12T06:36:12.621Z,98049.00
2023-01-12T06:38:40.294Z,98042.00
2023-01-12T06:41:29.903Z,98050.00
2023-01-12T06:43:57.771Z,98042.00
2023-01-12T06:46:27.805Z,98035.00
2023-01-12T06:48:56.631Z,98036.00
2023-01-12T06:51:24.360Z,98029.00
2023-01-12T06:53:52.172Z,98029.00
2023-01-12T06:56:19.808Z,98033.00
2023-01-12T06:58:47.657Z,98034.00
2023-01-12T07:01:15.427Z,98028.00
2023-01-12T07:03:44.538Z,98014.00
2023-01-12T07:06:12.854Z,98015.00
2023-01-12T07:08:40.518Z,98007.00
2023-01-12T07:11:08.966Z,98009.00
2023-01-12T07:13:36.611Z,98011.00
2023-01-12T07:16:04.527Z,98017.00
2023-01-12T07:18:32.228Z,98017.00
2023-01-12T07:21:05.199Z,98028.00
2023-01-12T07:23:32.838Z,98033.00
2023-01-12T07:26:00.516Z,98025.00
2023-01-12T07:28:28.300Z,98017.00
2023-01-12T07:31:00.620Z,98016.00
2023-01-12T07:33:28.280Z,98026.00
2023-01-12T07:35:59.646Z,98014.00
2023-01-12T07:38:29.735Z,98009.00
2023-01-12T07:40:59.428Z,98022.00
2023-01-12T07:43:27.422Z,98023.00
2023-01-12T07:45:57.191Z,98025.00
2023-01-12T07:48:26.687Z,98010.00
2023-01-12T07:50:54.518Z,98012.00
2023-01-12T07:53:22.200Z,98006.00
2023-01-12T07:55:51.157Z,98001.00
2023-01-12T07:58:18.810Z,97996.00
2023-01-12T08:00:46.434Z,97991.00
2023-01-12T08:03:14.966Z,97990.00
2023-01-12T08:05:42.923Z,97988.00
2023-01-12T08:08:10.633Z,97986.00
2023-01-12T08:10:38.270Z,97985.00
2023-01-12T08:13:07.349Z,97988.00
2023-01-12T08:15:39.847Z,97991.00
2023-01-12T08:18:11.417Z,97993.00
2023-01-12T08:20:39.552Z,97991.00
2023-01-12T08:23:12.838Z,97988.00
2023-01-12T08:25:44.955Z,97986.00
2023-01-12T08:28:19.007Z,97996.00
2023-01-12T08:30:48.030Z,97983.00
2023-01-12T08:33:16.294Z,97993.00
2023-01-12T08:35:46.231Z,97983.00
2023-01-12T08:38:16.544Z,97976.00
2023-01-12T08:41:02.041Z,97988.00
2023-01-12T08:43:48.957Z,97983.00
2023-01-12T08:46:16.792Z,97977.00
2023-01-12T08:48:44.413Z,97980.00
2023-01-12T08:51:12.124Z,97982.00
2023-01-12T08:53:40.237Z,97970.00
2023-01-12T08:56:08.498Z,97966.00
2023-01-12T08:58:38.800Z,97957.00
2023-01-12T09:01:11.229Z,97957.00
2023-01-12T09:03:40.341Z,97953.00
2023-01-12T09:06:13.599Z,97953.00
2023-01-12T09:08:41.454Z,97960.00
2023-01-12T09:11:09.783Z,97970.00
2023-01-12T09:13:38.825Z,97970.00
2023-01-12T09:16:12.724Z,97983.00
2023-01-12T09:18:41.563Z,97978.00
2023-01-12T09:21:10.927Z,97970.00
2023-01-12T09:23:38.901Z,97966.00
2023-01-12T09:26:07.636Z,97976.00
2023-01-12T09:28:36.275Z,97970.00
2023-01-12T09:31:07.590Z,97967.00
2023-01-12T09:33:35.996Z,97964.00
2023-01-12T09:36:04.731Z,97958.00
2023-01-12T09:38:32.672Z,97967.00
2023-01-12T09:41:02.613Z,97962.00
2023-01-12T09:43:48.261Z,97959.00
2023-01-12T09:46:44.778Z,97967.00
2023-01-12T09:49:13.248Z,97965.00
2023-01-12T09:51:49.139Z,97971.00
2023-01-12T09:54:16.984Z,97972.00
2023-01-12T09:56:52.383Z,97979.00
2023-01-12T09:59:33.427Z,97977.00
2023-01-12T10:02:02.787Z,97976.00
2023-01-12T10:04:30.505Z,97967.00
2023-01-12T10:06:58.349Z,97959.00
2023-01-12T10:09:26.685Z,97961.00
2023-01-12T10:12:05.634Z,97958.00
2023-01-12T10:15:03.218Z,97953.00
2023-01-12T10:17:50.574Z,97953.00
2023-01-12T10:20:24.982Z,97945.00
2023-01-12T10:22:55.116Z,97940.00
2023-01-12T10:25:28.321Z,97937.00
2023-01-12T10:27:57.884Z,97953.00
2023-01-12T10:30:32.508Z,97936.00
2023-01-12T10:33:09.895Z,97939.00
2023-01-12T10:35:48.281Z,97929.00
2023-01-12T10:38:22.703Z,97933.00
2023-01-12T10:41:05.644Z,97935.00
2023-01-12T10:43:34.237Z,97928.00
2023-01-12T10:46:09.663Z,97935.00
2023-01-12T10:48:41.146Z,97932.00
2023-01-12T10:51:27.836Z,97928.00
2023-01-12T10:53:59.846Z,97925.00
2023-01-12T10:56:32.183Z,97927.00
2023-01-12T10:59:03.584Z,97928.00
2023-01-12T11:01:44.833Z,97920.00
2023-01-12T11:04:16.245Z,97920.00
2023-01-12T11:06:46.933Z,97918.00
2023-01-12T11:09:26.228Z,97920.00
2023-01-12T11:11:56.953Z,97923.00
2023-01-12T11:14:30.917Z,97919.00
2023-01-12T11:17:08.581Z,97908.00
2023-01-12T11:19:42.224Z,97908.00
2023-01-12T11:22:14.395Z,97905.00
2023-01-12T11:24:47.484Z,97892.00
2023-01-12T11:27:21.319Z,97885.00
2023-01-12T11:29:58.000Z,97895.00
2023-01-12T11:32:33.319Z,97892.00
2023-01-12T11:35:06.794Z,97888.00
2023-01-12T11:37:39.569Z,97887.00
2023-01-12T11:40:19.391Z,97883.00
2023-01-12T11:43:07.380Z,97882.00
2023-01-12T11:45:47.484Z,97886.00
2023-01-12T11:48:23.374Z,97884.00
2023-01-12T11:50:54.314Z,97889.00
2023-01-12T11:53:24.412Z,97878.00
2023-01-12T11:56:10.918Z,97875.00
2023-01-12T11:58:48.875Z,97871.00
2023-01-12T12:01:23.237Z,97868.00
2023-01-12T12:03:59.531Z,97863.00
2023-01-12T12:06:48.817Z,97866.00
2023-01-12T12:09:28.595Z,97854.00
2023-01-12T12:11:59.847Z,97851.00
2023-01-12T12:14:43.008Z,97850.00
2023-01-12T12:17:16.398Z,97844.00
2023-01-12T12:19:55.428Z,97844.00
2023-01-12T12:22:41.207Z,97846.00
2023-01-12T12:25:21.361Z,97841.00
2023-01-12T12:28:04.840Z,97846.00
2023-01-12T12:30:52.461Z,97845.00
2023-01-12T12:33:29.907Z,97851.00
2023-01-12T12:36:15.137Z,97851.00
2023-01-12T12:38:57.013Z,97833.00
2023-01-12T12:41:52.561Z,97851.00
2023-01-12T12:44:55.570Z,97848.00
2023-01-12T12:47:48.986Z,97833.00
2023-01-12T12:50:21.265Z,97837.00
2023-01-12T12:52:52.572Z,97838.00
2023-01-12T12:55:21.640Z,97826.00
2023-01-12T12:58:03.829Z,97833.00
2023-01-12T13:00:36.646Z,97836.00
2023-01-12T13:03:04.821Z,97825.00
2023-01-12T13:05:47.605Z,97836.00
2023-01-12T13:08:21.792Z,97832.00
2023-01-12T13:10:53.507Z,97831.00
2023-01-12T13:13:27.884Z,97830.00
2023-01-12T13:16:42.077Z,97833.00
2023-01-12T13:19:14.558Z,97831.00
2023-01-12T13:22:00.868Z,97821.00
2023-01-12T13:24:43.467Z,97826.00
2023-01-12T13:27:44.367Z,97812.00
2023-01-12T13:30:49.801Z,97819.00
2023-01-12T13:33:24.928Z,97815.00
2023-01-12T13:36:04.657Z,97818.00
2023-01-12T13:38:45.742Z,97827.00
2023-01-12T13:41:35.903Z,97816.00
2023-01-12T13:44:08.035Z,97824.00
2023-01-12T13:46:45.288Z,97816.00
2023-01-12T13:49:30.895Z,97808.00
2023-01-12T13:52:05.923Z,97800.00
2023-01-12T13:54:35.456Z,97806.00
2023-01-12T13:57:06.862Z,97808.00
2023-01-12T13:59:36.657Z,97801.00
2023-01-12T14:02:19.577Z,97797.00
2023-01-12T14:05:08.352Z,97800.00
2023-01-12T14:07:49.837Z,97805.00
2023-01-12T14:10:29.336Z,97798.00
2023-01-12T14:13:27.505Z,97802.00
2023-01-12T14:16:19.613Z,97803.00
2023-01-12T14:18:50.871Z,97801.00
2023-01-12T14:21:25.093Z,97801.00
2023-01-12T14:23:53.160Z,97803.00
2023-01-12T14:26:23.837Z,97802.00
2023-01-12T14:28:52.982Z,97795.00
2023-01-12T14:31:27.054Z,97803.00
2023-01-12T14:33:57.824Z,97786.00
2023-01-12T14:36:28.748Z,97786.00
2023-01-12T14:38:58.780Z,97788.00
2023-01-12T14:41:46.493Z,97796.00
2023-01-12T14:44:37.181Z,97791.00
2023-01-12T14:47:05.249Z,97808.00
2023-01-12T14:49:36.148Z,97796.00
2023-01-12T14:52:21.551Z,97802.00
2023-01-12T14:54:49.688Z,97790.00
2023-01-12T14:57:22.186Z,97797.00
2023-01-12T14:59:50.722Z,97803.00
2023-01-12T15:02:32.589Z,97786.00
2023-01-12T15:05:05.272Z,97790.00
2023-01-12T15:07:36.581Z,97795.00
2023-01-12T15:10:26.083Z,97787.00
2023-01-12T15:12:55.179Z,97791.00
2023-01-12T15:15:24.537Z,97783.00
2023-01-12T15:18:13.235Z,97788.00
2023-01-12T15:20:58.111Z,97791.00
2023-01-12T15:23:47.511Z,97791.00
2023-01-12T15:26:15.248Z,97803.00
2023-01-12T15:28:42.962Z,97797.00
2023-01-12T15:31:18.026Z,97802.00
2023-01-12T15:33:46.087Z,97789.00
2023-01-12T15:36:15.562Z,97803.00
2023-01-12T15:38:43.295Z,97799.00
2023-01-12T15:41:17.132Z,97796.00
2023-01-12T15:43:44.776Z,97798.00
2023-01-12T15:46:18.774Z,97804.00
2023-01-12T15:48:46.404Z,97806.00
2023-01-12T15:51:16.993Z,97803.00
2023-01-12T15:53:44.760Z,97800.00
2023-01-12T15:56:15.306Z,97807.00
2023-01-12T15:58:43.183Z,97807.00
2023-01-12T16:01:16.869Z,97798.00
2023-01-12T16:04:09.474Z,97807.00
2023-01-12T16:06:34.206Z,97816.00
2023-01-12T16:09:02.200Z,97816.00
2023-01-12T16:11:29.867Z,97817.00
2023-01-12T16:13:57.905Z,97818.00
2023-01-12T16:16:26.649Z,97825.00
2023-01-12T16:18:59.706Z,97826.00
2023-01-12T16:21:28.552Z,97818.00
2023-01-12T16:23:57.995Z,97819.00
2023-01-12T16:26:26.597Z,97815.00
2023-01-12T16:28:54.335Z,97811.00
2023-01-12T16:31:22.093Z,97808.00
2023-01-12T16:33:49.763Z,97809.00
2023-01-12T16:36:17.422Z,97811.00
2023-01-12T16:38:45.102Z,97813.00
2023-01-12T16:41:18.794Z,97817.00
2023-01-12T16:43:46.527Z,97814.00
2023-01-12T16:46:15.181Z,97807.00
2023-01-12T16:48:43.361Z,97800.00
2023-01-12T16:51:12.434Z,97815.00
2023-01-12T16:53:41.536Z,97807.00
2023-01-12T16:56:11.559Z,97799.00
2023-01-12T16:58:48.949Z,97798.00
2023-01-12T17:01:19.211Z,97795.00
2023-01-12T17:03:47.530Z,97788.00
2023-01-12T17:06:17.677Z,97789.00
2023-01-12T17:08:45.575Z,97788.00
2023-01-12T17:11:15.621Z,97789.00
2023-01-12T17:13:44.719Z,97780.00
2023-01-12T17:16:16.261Z,97784.00
2023-01-12T17:18:44.178Z,97778.00
2023-01-12T17:21:14.425Z,97773.00
2023-01-12T17:23:43.607Z,97780.00
2023-01-12T17:26:13.953Z,97776.00
2023-01-12T17:28:42.126Z,97781.00
2023-01-12T17:31:13.912Z,97778.00
2023-01-12T17:33:41.985Z,97780.00
2023-01-12T17:36:11.678Z,97782.00
2023-01-12T17:38:40.161Z,97773.00
2023-01-12T17:41:09.062Z,97780.00
2023-01-12T17:43:37.283Z,97780.00
2023-01-12T17:46:08.498Z,97784.00
2023-01-12T17:48:37.612Z,97770.00
2023-01-12T17:51:11.609Z,97774.00
2023-01-12T17:53:39.340Z,97776.00
2023-01-12T17:56:08.059Z,97770.00
2023-01-12T17:58:36.545Z,97769.00
2023-01-12T18:01:11.838Z,97769.00
2023-01-12T18:03:41.169Z,97765.00
2023-01-12T18:06:15.128Z,97760.00
2023-01-12T18:08:47.364Z,97754.00
2023-01-12T18:11:15.515Z,97757.00
2023-01-12T18:13:44.176Z,97756.00
2023-01-12T18:16:14.544Z,97757.00
2023-01-12T18:18:44.147Z,97758.00
2023-01-12T18:21:14.339Z,97760.00
2023-01-12T18:23:43.501Z,97758.00
2023-01-12T18:26:13.489Z,97757.00
2023-01-12T18:28:41.520Z,97755.00
2023-01-12T18:31:10.630Z,97749.00
2023-01-12T18:33:38.902Z,97738.00
2023-01-12T18:36:12.483Z,97734.00
2023-01-12T18:38:41.104Z,97736.00
2023-01-12T18:41:27.474Z,97735.00
2023-01-12T18:43:55.735Z,97725.00
2023-01-12T18:46:43.431Z,97727.00
2023-01-12T18:49:10.124Z,97726.00
2023-01-12T18:51:56.621Z,97730.00
2023-01-12T18:54:24.343Z,97733.00
2023-01-12T18:56:55.094Z,97734.00
2023-01-12T18:59:22.833Z,97726.00
2023-01-12T19:01:50.674Z,97730.00
2023-01-12T19:04:28.885Z,97733.00
2023-01-12T19:07:01.055Z,97725.00
2023-01-12T19:09:38.439Z,97724.00
2023-01-12T19:12:07.152Z,97723.00
2023-01-12T19:14:52.274Z,97722.00
2023-01-12T19:17:30.554Z,97718.00
2023-01-12T19:19:59.494Z,97720.00
2023-01-12T19:22:46.805Z,97718.00
2023-01-12T19:25:32.878Z,97717.00
2023-01-12T19:28:18.032Z,97711.00
2023-01-12T19:30:46.752Z,97703.00
2023-01-12T19:33:14.994Z,97697.00
2023-01-12T19:35:43.449Z,97694.00
2023-01-12T19:38:14.052Z,97709.00
2023-01-12T19:40:46.762Z,97704.00
2023-01-12T19:43:19.709Z,97705.00
2023-01-12T19:45:48.821Z,97707.00
2023-01-12T19:48:17.842Z,97711.00
2023-01-12T19:50:46.103Z,97704.00
2023-01-12T19:53:16.512Z,97708.00
2023-01-12T19:55:44.366Z,97700.00
2023-01-12T19:58:12.356Z,97700.00
2023-01-12T20:00:44.834Z,97698.00
2023-01-12T20:03:13.543Z,97702.00
2023-01-12T20:05:42.062Z,97700.00
2023-01-12T20:08:10.411Z,97700.00
2023-01-12T20:10:39.657Z,97705.00
2023-01-12T20:13:08.087Z,97696.00
2023-01-12T20:15:38.628Z,97695.00
2023-01-12T20:18:08.580Z,97694.00
2023-01-12T20:20:36.516Z,97690.00
2023-01-12T20:23:04.283Z,97697.00
2023-01-12T20:25:31.940Z,97702.00
2023-01-12T20:28:01.013Z,97695.00
2023-01-12T20:30:43.743Z,97684.00
2023-01-12T20:33:12.749Z,97682.00
2023-01-12T20:35:45.719Z,97688.00
2023-01-12T20:38:16.244Z,97686.00
2023-01-12T20:40:44.961Z,97687.00
2023-01-12T20:43:14.398Z,97675.00
2023-01-12T20:45:43.009Z,97676.00
2023-01-12T20:48:13.521Z,97672.00
2023-01-12T20:50:43.480Z,97672.00
2023-01-12T20:53:11.602Z,97674.00
2023-01-12T20:55:43.265Z,97674.00
2023-01-12T20:58:11.118Z,97671.00
2023-01-12T21:00:40.329Z,97667.00
2023-01-12T21:03:08.559Z,97666.00
2023-01-12T21:05:36.356Z,97667.00
2023-01-12T21:08:08.212Z,97663.00
2023-01-12T21:10:36.939Z,97648.00
2023-01-12T21:13:05.281Z,97657.00
2023-01-12T21:15:32.967Z,97657.00
2023-01-12T21:18:01.978Z,97653.00
2023-01-12T21:20:29.634Z,97653.00
2023-01-12T21:22:57.328Z,97644.00
2023-01-12T21:25:27.895Z,97646.00
2023-01-12T21:27:55.784Z,97638.00
2023-01-12T21:30:23.558Z,97649.00
2023-01-12T21:32:52.845Z,97650.00
2023-01-12T21:35:21.900Z,97637.00
2023-01-12T21:37:51.212Z,97639.00
2023-01-12T21:40:20.779Z,97645.00
2023-01-12T21:43:06.421Z,97634.00
2023-01-12T21:45:35.600Z,97628.00
2023-01-12T21:48:03.388Z,97626.00
2023-01-12T21:50:34.995Z,97633.00
2023-01-12T21:53:03.562Z,97630.00
2023-01-12T21:55:32.479Z,97624.00
2023-01-12T21:58:01.888Z,97627.00
2023-01-12T22:00:30.038Z,97633.00
2023-01-12T22:02:58.977Z,97635.00
2023-01-12T22:05:27.848Z,97631.00
2023-01-12T22:07:57.839Z,97634.00
2023-01-12T22:10:30.404Z,97644.00
2023-01-12T22:13:00.738Z,97639.00
2023-01-12T22:15:30.141Z,97632.00
2023-01-12T22:17:57.807Z,97627.00
2023-01-12T22:20:27.747Z,97625.00
2023-01-12T22:22:56.786Z,97633.00
2023-01-12T22:25:24.416Z,97629.00
2023-01-12T22:27:52.319Z,97629.00
2023-01-12T22:30:22.346Z,97627.00
2023-01-12T22:32:54.427Z,97629.00
2023-01-12T22:35:22.322Z,97647.00
2023-01-12T22:37:50.045Z,97627.00
2023-01-12T22:40:19.330Z,97621.00
2023-01-12T22:43:16.277Z,97629.00
2023-01-12T22:45:43.988Z,97626.00
2023-01-12T22:48:11.730Z,97614.00
2023-01-12T22:50:39.695Z,97612.00
2023-01-12T22:53:07.323Z,97609.00
2023-01-12T22:55:40.225Z,97620.00
2023-01-12T22:58:08.200Z,97614.00
2023-01-12T23:00:38.792Z,97619.00
2023-01-12T23:03:09.406Z,97599.00
2023-01-12T23:05:45.229Z,97603.00
2023-01-12T23:08:13.735Z,97603.00
2023-01-12T23:10:43.713Z,97606.00
2023-01-12T23:13:17.188Z,97592.00
2023-01-12T23:15:47.721Z,97602.00
2023-01-12T23:18:18.035Z,97598.00
2023-01-12T23:20:47.946Z,97591.00
2023-01-12T23:23:17.785Z,97592.00
2023-01-12T23:25:47.820Z,97592.00
2023-01-12T23:28:16.914Z,97587.00
2023-01-12T23:30:45.068Z,97587.00
2023-01-12T23:33:12.990Z,97589.00
2023-01-12T23:35:42.002Z,97574.00
2023-01-12T23:38:14.892Z,97572.00
2023-01-12T23:40:42.933Z,97570.00
2023-01-12T23:43:12.017Z,97561.00
2023-01-12T23:45:39.773Z,97562.00
2023-01-12T23:48:08.233Z,97565.00
2023-01-12T23:50:36.339Z,97560.00
2023-01-12T23:53:04.164Z,97559.00
2023-01-12T23:55:31.951Z,97562.00
2023-01-12T23:57:59.811Z,97557.00
